Time;durP1;ratioP1;P1;durP2;ratioP2;P2;SDS_P1;SDS_P2;PMS_P1;PMS_P2;Temp;Humidity;BMP_temperature;BMP_pressure;BME280_temperature;BME280_humidity;BME280_pressure;Samples;Min_cycle;Max_cycle;Signal;HPM_P1;HPM_P2
2023/03/27 00:00:12;;;;;;;1.30;1.30;;;8.40;99.90;;;;;;5027498;28;20193;-85
2023/03/27 00:02:37;;;;;;;1.57;1.40;;;8.40;99.90;;;;;;5027560;28;20200;-85
2023/03/27 00:05:04;;;;;;;1.20;1.20;;;8.40;99.90;;;;;;5025676;28;20198;-86
2023/03/27 00:07:29;;;;;;;1.90;1.30;;;8.40;99.90;;;;;;5027561;28;20217;-83
2023/03/27 00:09:56;;;;;;;1.20;1.20;;;8.40;99.90;;;;;;5025924;28;20425;-85
2023/03/27 00:12:21;;;;;;;1.33;1.30;;;8.40;99.90;;;;;;5027567;28;20309;-84
2023/03/27 00:14:47;;;;;;;1.30;1.30;;;8.40;99.90;;;;;;5027959;28;20204;-85
2023/03/27 00:17:13;;;;;;;1.20;1.20;;;8.30;99.90;;;;;;5027906;28;20181;-85
2023/03/27 00:19:38;;;;;;;1.40;1.40;;;8.30;99.90;;;;;;5027516;28;20323;-85
2023/03/27 00:22:04;;;;;;;1.57;1.47;;;8.40;99.90;;;;;;5027919;28;20185;-86
2023/03/27 00:24:31;;;;;;;1.50;1.40;;;8.50;99.90;;;;;;5027640;28;20250;-82
2023/03/27 00:26:57;;;;;;;1.43;1.40;;;8.40;99.90;;;;;;5025814;28;20186;-84
2023/03/27 00:29:22;;;;;;;1.40;1.40;;;8.40;99.90;;;;;;5028011;28;20201;-82
2023/03/27 00:31:48;;;;;;;1.20;1.20;;;8.40;99.90;;;;;;5025938;28;20232;-84
2023/03/27 00:34:14;;;;;;;1.30;1.20;;;8.40;99.90;;;;;;5025796;28;20240;-89
2023/03/27 00:36:39;;;;;;;1.30;1.30;;;8.40;99.90;;;;;;5026039;28;20188;-88
2023/03/27 00:39:05;;;;;;;1.30;1.30;;;8.40;99.90;;;;;;5026110;28;20205;-89
2023/03/27 00:41:32;;;;;;;2.07;1.43;;;8.50;99.90;;;;;;5024976;28;20185;-85
2023/03/27 00:43:58;;;;;;;1.47;1.40;;;8.50;99.90;;;;;;5024920;28;20195;-85
2023/03/27 00:46:39;;;;;;;1.43;1.33;;;8.40;99.90;;;;;;5025705;28;20233;-85
2023/03/27 00:49:08;;;;;;;1.20;1.20;;;8.40;99.90;;;;;;5027204;28;20189;-82
2023/03/27 00:51:35;;;;;;;1.60;1.50;;;8.30;99.90;;;;;;5035057;28;20201;-85
2023/03/27 00:54:03;;;;;;;1.53;1.43;;;8.30;99.90;;;;;;5025775;28;20181;-84
2023/03/27 00:56:29;;;;;;;1.93;1.73;;;8.30;99.90;;;;;;5025385;28;20205;-85
2023/03/27 00:58:59;;;;;;;2.03;1.93;;;8.30;99.90;;;;;;5024946;28;20174;-83
2023/03/27 01:01:27;;;;;;;2.00;1.90;;;8.30;99.90;;;;;;5027177;28;20177;-85
2023/03/27 01:03:54;;;;;;;1.80;1.70;;;8.20;99.90;;;;;;5026328;28;20228;-83
2023/03/27 01:06:21;;;;;;;2.10;2.00;;;8.20;99.90;;;;;;5026358;28;20293;-84
2023/03/27 01:08:47;;;;;;;2.23;2.03;;;8.20;99.90;;;;;;5027160;28;20177;-83
2023/03/27 01:11:26;;;;;;;1.97;1.87;;;8.20;99.90;;;;;;5027392;28;20201;-85
2023/03/27 01:13:59;;;;;;;2.63;2.30;;;8.20;99.90;;;;;;5025779;28;20181;-84
2023/03/27 01:17:15;;;;;;;2.30;2.10;;;8.30;99.90;;;;;;5026121;28;20257;-84
2023/03/27 01:19:59;;;;;;;2.97;2.33;;;8.30;99.90;;;;;;4993405;28;20196;-85
2023/03/27 01:22:38;;;;;;;2.70;2.50;;;8.20;99.90;;;;;;5026207;28;20177;-89
2023/03/27 01:25:15;;;;;;;4.37;3.10;;;8.00;99.90;;;;;;5026042;28;20189;-85
2023/03/27 01:27:47;;;;;;;3.73;2.97;;;7.90;97.50;;;;;;5025599;28;20169;-85
2023/03/27 01:30:27;;;;;;;4.07;3.20;;;7.80;99.60;;;;;;5025199;28;20170;-83
2023/03/27 01:33:06;;;;;;;4.47;3.30;;;7.80;94.10;;;;;;5007951;28;20210;-85
2023/03/27 01:35:41;;;;;;;3.97;3.33;;;7.80;95.40;;;;;;5025056;28;20289;-86
2023/03/27 01:38:18;;;;;;;3.73;3.20;;;7.70;94.50;;;;;;5024451;28;20245;-87
2023/03/27 01:40:57;;;;;;;3.67;2.80;;;7.70;92.90;;;;;;5025233;28;20180;-84
2023/03/27 01:43:46;;;;;;;6.97;3.43;;;7.70;92.70;;;;;;5025959;28;20177;-83
2023/03/27 01:46:40;;;;;;;4.30;3.60;;;7.60;91.10;;;;;;5033489;28;20220;-83
2023/03/27 01:49:19;;;;;;;5.10;3.63;;;7.60;91.40;;;;;;5019681;28;20173;-88
2023/03/27 01:51:57;;;;;;;7.17;3.70;;;7.60;92.90;;;;;;5044934;28;20217;-83
2023/03/27 01:54:28;;;;;;;4.27;3.43;;;7.50;90.20;;;;;;5045462;28;20189;-84
2023/03/27 01:57:23;;;;;;;5.90;3.50;;;7.50;92.10;;;;;;5045918;28;20195;-85
2023/03/27 02:00:01;;;;;;;3.23;2.93;;;7.50;92.50;;;;;;5045371;28;20152;-85
2023/03/27 02:02:29;;;;;;;8.20;3.70;;;7.60;94.20;;;;;;5047580;28;20180;-87
2023/03/27 02:04:58;;;;;;;4.60;4.10;;;7.50;90.20;;;;;;5045899;28;20571;-85
2023/03/27 02:07:32;;;;;;;6.23;4.03;;;7.30;89.70;;;;;;5046642;28;20249;-82
2023/03/27 02:10:02;;;;;;;7.47;4.10;;;7.20;89.50;;;;;;5046318;28;20161;-85
2023/03/27 02:12:38;;;;;;;6.93;3.83;;;7.30;90.50;;;;;;5046810;28;20200;-84
2023/03/27 02:15:10;;;;;;;6.77;4.00;;;7.30;90.30;;;;;;5046025;28;20579;-87
2023/03/27 02:17:41;;;;;;;8.00;3.90;;;7.20;89.70;;;;;;5045206;28;20207;-85
2023/03/27 02:20:13;;;;;;;7.60;3.70;;;7.20;89.00;;;;;;5045818;28;20251;-84
2023/03/27 02:22:39;;;;;;;7.07;3.37;;;7.20;85.70;;;;;;5046305;28;20177;-84
2023/03/27 02:25:31;;;;;;;6.30;3.70;;;7.20;86.40;;;;;;5043338;28;20696;-85
2023/03/27 02:28:22;;;;;;;5.37;3.40;;;7.20;87.00;;;;;;5041841;28;20201;-87
2023/03/27 02:30:57;;;;;;;8.43;3.83;;;7.00;84.80;;;;;;5044981;28;20169;-85
2023/03/27 02:33:38;;;;;;;7.47;3.33;;;7.00;86.60;;;;;;5045251;28;20152;-84
2023/03/27 02:36:20;;;;;;;8.17;4.13;;;6.90;89.30;;;;;;5046992;28;20242;-87
2023/03/27 02:38:55;;;;;;;7.13;3.87;;;7.00;87.60;;;;;;5030928;28;20643;-83
2023/03/27 02:41:43;;;;;;;7.13;3.30;;;7.10;85.80;;;;;;5045240;28;20219;-84
2023/03/27 02:44:20;;;;;;;6.00;3.43;;;7.10;87.10;;;;;;5032772;28;20177;-87
2023/03/27 02:46:58;;;;;;;6.27;3.57;;;7.00;82.00;;;;;;5027365;28;20382;-84
2023/03/27 02:49:33;;;;;;;7.87;3.80;;;7.00;83.40;;;;;;5036225;28;20647;-82
2023/03/27 02:52:08;;;;;;;8.43;3.67;;;7.00;82.10;;;;;;5047766;28;20358;-86
2023/03/27 02:54:42;;;;;;;10.40;3.37;;;6.90;82.80;;;;;;5045601;28;20199;-84
2023/03/27 02:57:13;;;;;;;7.50;3.20;;;6.90;84.70;;;;;;5047104;28;20176;-84
2023/03/27 02:59:44;;;;;;;6.20;3.00;;;6.80;78.60;;;;;;5029574;28;20192;-84
2023/03/27 03:02:18;;;;;;;6.67;3.47;;;6.70;79.50;;;;;;5049088;28;20173;-86
2023/03/27 03:05:21;;;;;;;8.30;3.10;;;6.60;80.00;;;;;;5047687;28;20223;-85
2023/03/27 03:07:48;;;;;;;4.83;2.80;;;6.60;78.60;;;;;;5045838;28;20185;-83
2023/03/27 03:10:15;;;;;;;7.50;3.27;;;6.70;78.30;;;;;;5048781;28;20231;-86
2023/03/27 03:12:41;;;;;;;7.43;3.23;;;6.60;77.10;;;;;;5047875;28;20699;-84
2023/03/27 03:15:07;;;;;;;6.90;3.00;;;6.60;78.00;;;;;;5047491;28;20569;-85
2023/03/27 03:17:34;;;;;;;7.27;2.87;;;6.60;78.10;;;;;;5046214;28;20240;-86
2023/03/27 03:19:59;;;;;;;7.00;2.60;;;6.50;77.40;;;;;;5027086;28;20195;-82
2023/03/27 03:22:26;;;;;;;6.87;3.03;;;6.40;76.40;;;;;;5008299;28;20277;-83
2023/03/27 03:24:51;;;;;;;6.57;2.90;;;6.50;76.40;;;;;;5025718;28;20666;-83
2023/03/27 03:27:19;;;;;;;7.40;2.47;;;6.50;77.90;;;;;;5025512;28;20536;-84
2023/03/27 03:29:46;;;;;;;4.50;2.50;;;6.50;77.70;;;;;;5026036;28;20173;-84
2023/03/27 03:32:12;;;;;;;8.23;3.07;;;6.50;76.80;;;;;;5025164;28;20229;-84
2023/03/27 03:34:40;;;;;;;4.97;3.00;;;6.50;78.70;;;;;;5024674;28;20202;-87
2023/03/27 03:37:09;;;;;;;7.83;3.03;;;6.50;77.60;;;;;;5027622;28;20193;-86
2023/03/27 03:39:35;;;;;;;7.20;2.73;;;6.40;77.30;;;;;;5027209;28;20184;-84
2023/03/27 03:42:00;;;;;;;9.57;2.90;;;6.40;78.20;;;;;;5028624;28;20241;-85
2023/03/27 03:44:26;;;;;;;9.10;2.97;;;6.40;76.70;;;;;;5025719;28;20185;-84
2023/03/27 03:46:52;;;;;;;5.73;2.70;;;6.20;76.50;;;;;;5026924;28;20261;-85
2023/03/27 03:49:17;;;;;;;7.97;2.30;;;6.20;76.80;;;;;;5026498;28;20181;-86
2023/03/27 03:51:43;;;;;;;6.43;2.80;;;6.20;74.60;;;;;;5026537;28;20232;-81
2023/03/27 03:54:09;;;;;;;6.37;2.63;;;6.10;74.30;;;;;;5008324;28;20192;-82
2023/03/27 03:56:35;;;;;;;5.67;2.90;;;6.00;74.40;;;;;;5007079;28;20312;-83
2023/03/27 03:59:01;;;;;;;7.50;2.60;;;6.00;74.00;;;;;;5038511;28;20185;-86
2023/03/27 04:01:27;;;;;;;5.43;2.80;;;6.00;76.80;;;;;;5038924;28;20195;-85
2023/03/27 04:03:53;;;;;;;5.27;2.47;;;6.00;73.60;;;;;;5046935;28;20185;-82
2023/03/27 04:06:20;;;;;;;8.20;2.97;;;5.90;74.90;;;;;;5041599;28;20262;-84
2023/03/27 04:08:46;;;;;;;4.83;2.80;;;5.80;74.70;;;;;;5029611;28;20544;-85
2023/03/27 04:11:12;;;;;;;7.43;3.20;;;5.80;76.10;;;;;;5023727;28;20237;-83
2023/03/27 04:13:37;;;;;;;6.47;4.07;;;5.90;76.80;;;;;;5010321;28;20232;-81
2023/03/27 04:16:03;;;;;;;8.90;3.13;;;5.90;76.30;;;;;;5025285;28;20210;-86
2023/03/27 04:18:31;;;;;;;4.93;3.00;;;5.90;78.10;;;;;;5016044;28;20178;-86
2023/03/27 04:21:00;;;;;;;9.37;4.53;;;5.90;76.80;;;;;;5007162;28;20170;-80
2023/03/27 04:23:32;;;;;;;7.27;3.93;;;5.80;75.40;;;;;;5006523;28;20175;-84
2023/03/27 04:25:59;;;;;;;7.20;3.23;;;5.80;74.80;;;;;;5011100;28;20201;-84
2023/03/27 04:28:33;;;;;;;8.27;3.20;;;5.70;75.50;;;;;;5006213;28;20212;-82
2023/03/27 04:30:59;;;;;;;9.43;3.83;;;5.70;75.00;;;;;;5006157;28;20233;-84
2023/03/27 04:33:25;;;;;;;7.13;3.60;;;5.60;77.20;;;;;;5008568;28;20185;-83
2023/03/27 04:35:51;;;;;;;7.77;3.47;;;5.60;76.10;;;;;;5035116;28;20193;-83
2023/03/27 04:38:18;;;;;;;6.73;2.83;;;5.60;76.80;;;;;;5026998;28;20607;-85
2023/03/27 04:40:48;;;;;;;5.83;2.57;;;5.60;75.80;;;;;;5025944;28;20260;-89
2023/03/27 04:43:15;;;;;;;6.33;3.00;;;5.60;76.60;;;;;;5023427;28;20189;-84
2023/03/27 04:45:46;;;;;;;5.27;2.30;;;5.70;75.70;;;;;;5022878;28;20270;-85
2023/03/27 04:48:12;;;;;;;7.10;3.00;;;5.70;74.20;;;;;;5025197;28;20227;-85
2023/03/27 04:50:39;;;;;;;8.07;2.97;;;5.60;76.10;;;;;;5036496;28;20233;-87
2023/03/27 04:53:05;;;;;;;8.87;2.87;;;5.70;75.00;;;;;;5005691;28;20186;-87
2023/03/27 04:55:36;;;;;;;4.77;2.67;;;5.60;74.70;;;;;;5004986;28;20202;-87
2023/03/27 04:58:05;;;;;;;6.67;2.70;;;5.70;75.90;;;;;;5007390;28;20162;-83
2023/03/27 05:00:31;;;;;;;10.50;3.07;;;5.60;75.30;;;;;;5008738;28;20193;-86
2023/03/27 05:02:56;;;;;;;6.80;2.87;;;5.70;75.40;;;;;;5005899;28;20190;-84
2023/03/27 05:05:23;;;;;;;5.67;2.63;;;5.70;75.50;;;;;;5006483;28;20206;-86
2023/03/27 05:07:50;;;;;;;6.90;2.97;;;5.70;75.40;;;;;;4990488;28;20197;-84
2023/03/27 05:10:16;;;;;;;4.80;2.93;;;5.70;74.60;;;;;;5006894;28;20178;-86
2023/03/27 05:12:46;;;;;;;5.27;2.40;;;5.70;73.70;;;;;;5006749;28;20268;-85
2023/03/27 05:15:13;;;;;;;3.43;2.40;;;5.60;71.20;;;;;;5004351;28;20226;-84
2023/03/27 05:17:40;;;;;;;9.07;2.43;;;5.60;69.50;;;;;;5005086;28;20204;-86
2023/03/27 05:20:07;;;;;;;7.17;2.47;;;5.60;67.50;;;;;;4989614;28;20205;-83
2023/03/27 05:22:33;;;;;;;8.40;2.83;;;5.50;67.20;;;;;;5008874;28;20213;-85
2023/03/27 05:24:59;;;;;;;5.93;2.47;;;5.50;66.60;;;;;;5025395;28;20760;-84
2023/03/27 05:27:25;;;;;;;5.80;2.40;;;5.50;65.70;;;;;;5025866;28;20178;-87
2023/03/27 05:29:51;;;;;;;3.50;2.20;;;5.50;65.90;;;;;;5024173;28;20439;-85
2023/03/27 05:32:16;;;;;;;5.60;2.27;;;5.40;65.00;;;;;;5036784;28;20296;-84
2023/03/27 05:34:42;;;;;;;6.03;2.60;;;5.40;65.40;;;;;;5039809;28;20193;-85
2023/03/27 05:37:08;;;;;;;2.93;1.97;;;5.30;66.20;;;;;;5006533;28;20201;-83
2023/03/27 05:39:35;;;;;;;5.83;2.07;;;5.30;65.80;;;;;;5009103;28;20209;-85
2023/03/27 05:42:02;;;;;;;5.33;1.90;;;5.30;67.20;;;;;;5025386;28;20178;-87
2023/03/27 05:44:27;;;;;;;3.67;2.00;;;5.30;67.90;;;;;;5019857;28;20198;-85
2023/03/27 05:46:53;;;;;;;8.30;2.60;;;5.40;66.60;;;;;;5023448;28;20204;-80
2023/03/27 05:49:19;;;;;;;5.90;2.43;;;5.40;66.00;;;;;;5031620;28;20180;-87
2023/03/27 05:51:45;;;;;;;5.50;2.10;;;5.40;65.00;;;;;;5043393;28;20216;-84
2023/03/27 05:54:11;;;;;;;4.33;2.07;;;5.40;64.30;;;;;;5042517;28;20188;-86
2023/03/27 05:56:37;;;;;;;5.70;2.63;;;5.40;66.70;;;;;;5033860;28;20200;-86
2023/03/27 05:59:02;;;;;;;8.20;2.60;;;5.40;65.30;;;;;;5034036;28;20181;-84
2023/03/27 06:01:28;;;;;;;2.90;2.30;;;5.40;66.40;;;;;;5043580;28;20314;-87
2023/03/27 06:03:54;;;;;;;5.97;2.23;;;5.40;65.30;;;;;;5030236;28;20209;-87
2023/03/27 06:06:20;;;;;;;6.30;2.63;;;5.40;66.70;;;;;;5008176;28;20201;-86
2023/03/27 06:08:46;;;;;;;6.83;2.57;;;5.40;66.80;;;;;;5029778;28;20181;-84
2023/03/27 06:11:14;;;;;;;11.60;3.30;;;5.40;67.40;;;;;;5037394;28;20213;-89
2023/03/27 06:13:39;;;;;;;5.87;2.40;;;5.40;66.90;;;;;;5025722;28;20288;-84
2023/03/27 06:16:06;;;;;;;6.63;2.47;;;5.10;66.30;;;;;;5034319;28;20217;-85
2023/03/27 06:18:32;;;;;;;10.43;8.23;;;5.20;68.20;;;;;;5024708;28;20849;-85
2023/03/27 06:20:58;;;;;;;6.57;2.30;;;5.30;68.50;;;;;;5035154;28;20207;-87
2023/03/27 06:23:24;;;;;;;3.57;2.23;;;5.40;66.00;;;;;;5024163;28;20198;-82
2023/03/27 06:25:51;;;;;;;4.70;2.77;;;5.50;67.00;;;;;;5028119;28;20209;-88
2023/03/27 06:28:18;;;;;;;4.00;2.83;;;5.50;67.00;;;;;;5034866;28;20182;-84
2023/03/27 06:30:45;;;;;;;5.50;2.50;;;5.50;65.70;;;;;;5036389;28;20208;-82
2023/03/27 06:33:11;;;;;;;4.83;2.47;;;5.50;67.20;;;;;;5021541;28;20258;-83
2023/03/27 06:35:38;;;;;;;6.33;2.73;;;5.50;65.70;;;;;;5003850;28;20205;-84
2023/03/27 06:38:05;;;;;;;4.90;2.70;;;5.60;65.80;;;;;;5004288;28;20209;-86
2023/03/27 06:40:34;;;;;;;9.43;2.63;;;5.50;67.10;;;;;;5002250;28;20238;-85
2023/03/27 06:43:07;;;;;;;7.23;3.93;;;5.50;65.60;;;;;;5002848;28;20178;-87
2023/03/27 06:45:34;;;;;;;4.93;3.07;;;5.40;65.80;;;;;;5002471;28;20206;-85
2023/03/27 06:48:02;;;;;;;5.03;2.23;;;5.40;67.60;;;;;;5004280;28;20186;-84
2023/03/27 06:50:29;;;;;;;6.57;3.07;;;5.50;68.00;;;;;;5035979;28;20182;-87
2023/03/27 06:52:56;;;;;;;4.30;3.90;;;5.50;67.40;;;;;;5025283;28;20291;-87
2023/03/27 06:55:25;;;;;;;8.30;3.80;;;5.50;67.40;;;;;;5025416;28;20214;-84
2023/03/27 06:57:53;;;;;;;5.07;3.60;;;5.60;66.90;;;;;;5026042;28;20174;-81
2023/03/27 07:00:23;;;;;;;5.60;2.80;;;5.60;67.20;;;;;;5022124;28;20209;-85
2023/03/27 07:02:56;;;;;;;8.67;2.87;;;5.80;66.00;;;;;;5004377;28;20275;-85
2023/03/27 07:05:24;;;;;;;5.40;2.87;;;5.90;63.60;;;;;;5005852;28;20209;-86
2023/03/27 07:07:50;;;;;;;6.13;2.70;;;5.90;64.00;;;;;;5004759;28;20170;-86
2023/03/27 07:10:16;;;;;;;4.50;2.70;;;5.90;65.90;;;;;;5004819;28;20217;-84
2023/03/27 07:12:46;;;;;;;7.50;2.60;;;5.80;65.60;;;;;;5005450;28;20233;-86
2023/03/27 07:15:12;;;;;;;4.57;2.20;;;5.80;62.30;;;;;;5003754;28;20238;-85
2023/03/27 07:17:39;;;;;;;4.37;2.33;;;5.80;65.30;;;;;;5002893;28;20175;-88
2023/03/27 07:20:06;;;;;;;8.07;2.60;;;5.60;66.60;;;;;;5008444;28;20189;-86
2023/03/27 07:22:32;;;;;;;6.83;3.20;;;5.60;61.70;;;;;;5022266;28;20248;-83
2023/03/27 07:24:57;;;;;;;6.47;2.40;;;5.40;64.90;;;;;;5023265;28;20945;-85
2023/03/27 07:27:24;;;;;;;8.33;3.07;;;5.50;64.80;;;;;;5050620;28;20242;-86
2023/03/27 07:29:50;;;;;;;5.17;2.33;;;5.50;65.50;;;;;;5050745;28;20181;-85
2023/03/27 07:32:16;;;;;;;6.07;3.30;;;5.60;64.00;;;;;;5042753;28;20254;-85
2023/03/27 07:34:42;;;;;;;6.47;2.57;;;5.60;63.30;;;;;;5012617;28;20278;-86
2023/03/27 07:37:07;;;;;;;9.70;3.07;;;5.70;62.90;;;;;;5027132;28;20201;-85
2023/03/27 07:39:34;;;;;;;4.80;2.70;;;5.70;62.10;;;;;;5028164;28;20177;-82
2023/03/27 07:41:59;;;;;;;4.83;2.73;;;5.80;62.50;;;;;;5025064;28;20250;-83
2023/03/27 07:44:25;;;;;;;6.83;2.60;;;5.80;61.90;;;;;;5008454;28;20190;-83
2023/03/27 07:46:51;;;;;;;9.10;2.50;;;5.80;60.80;;;;;;5008082;28;20183;-83
2023/03/27 07:49:18;;;;;;;5.70;2.43;;;5.90;58.70;;;;;;5016404;28;20182;-87
2023/03/27 07:51:44;;;;;;;5.53;2.67;;;5.90;60.50;;;;;;5025877;28;20194;-84
2023/03/27 07:54:12;;;;;;;5.37;2.23;;;5.90;59.40;;;;;;5023191;28;20238;-86
2023/03/27 07:56:38;;;;;;;5.17;2.50;;;6.00;60.00;;;;;;5008140;28;20230;-85
2023/03/27 07:59:04;;;;;;;7.67;2.70;;;6.10;58.80;;;;;;5008812;28;20171;-84
2023/03/27 08:01:31;;;;;;;3.40;2.10;;;6.10;58.10;;;;;;5009742;28;20206;-83
2023/03/27 08:03:56;;;;;;;6.53;2.23;;;6.10;58.00;;;;;;5027681;28;20206;-86
2023/03/27 08:06:22;;;;;;;6.83;2.27;;;6.00;56.30;;;;;;5026353;28;20220;-84
2023/03/27 08:08:49;;;;;;;6.63;2.47;;;6.00;52.60;;;;;;5026666;28;20332;-87
2023/03/27 08:11:16;;;;;;;4.80;2.10;;;6.10;53.10;;;;;;5027509;28;20186;-90
2023/03/27 08:13:41;;;;;;;4.97;2.17;;;6.10;53.80;;;;;;5026433;28;20189;-87
2023/03/27 08:16:09;;;;;;;4.07;2.03;;;6.10;52.60;;;;;;5026906;28;20185;-86
2023/03/27 08:18:38;;;;;;;2.77;2.37;;;6.00;51.30;;;;;;5027435;28;20635;-88
2023/03/27 08:21:07;;;;;;;3.33;2.00;;;6.00;51.60;;;;;;5037121;28;20186;-85
2023/03/27 08:23:34;;;;;;;6.90;2.00;;;6.00;52.30;;;;;;5015146;28;20305;-85
2023/03/27 08:26:00;;;;;;;7.30;2.77;;;6.10;55.90;;;;;;5008132;28;20265;-85
2023/03/27 08:28:30;;;;;;;8.83;2.40;;;6.20;55.10;;;;;;5008938;28;20621;-84
2023/03/27 08:30:56;;;;;;;6.70;2.47;;;6.30;52.80;;;;;;5006797;28;20679;-85
2023/03/27 08:33:23;;;;;;;5.00;1.93;;;6.40;51.80;;;;;;5022185;28;20186;-84
2023/03/27 08:35:49;;;;;;;4.97;2.17;;;6.40;51.70;;;;;;5026290;28;20340;-87
2023/03/27 08:38:16;;;;;;;6.80;2.60;;;6.40;51.30;;;;;;5027333;28;20177;-83
2023/03/27 08:40:47;;;;;;;3.83;2.13;;;6.50;50.20;;;;;;5027835;28;20208;-86
2023/03/27 08:43:19;;;;;;;4.40;2.10;;;6.60;49.90;;;;;;5010889;28;20190;-84
2023/03/27 08:45:56;;;;;;;3.83;2.00;;;6.70;49.90;;;;;;5010196;28;20205;-85
2023/03/27 08:48:30;;;;;;;4.10;3.20;;;6.70;49.10;;;;;;5029023;28;20233;-83
2023/03/27 08:51:02;;;;;;;5.77;2.60;;;7.00;54.20;;;;;;5047822;28;20184;-87
2023/03/27 08:54:06;;;;;;;6.13;2.47;;;7.20;50.40;;;;;;5034188;28;20192;-84
2023/03/27 08:56:33;;;;;;;4.23;2.17;;;7.30;49.30;;;;;;5006681;28;20237;-85
2023/03/27 08:58:59;;;;;;;6.67;3.03;;;7.20;47.80;;;;;;5008288;28;20178;-85
2023/03/27 09:01:39;;;;;;;4.50;2.23;;;7.20;48.50;;;;;;5006522;28;20265;-82
2023/03/27 09:04:30;;;;;;;4.87;2.13;;;7.20;47.50;;;;;;5006741;28;20198;-85
2023/03/27 09:07:24;;;;;;;4.67;2.30;;;7.10;48.10;;;;;;5024078;28;20205;-86
2023/03/27 09:10:16;;;;;;;5.70;3.57;;;7.10;47.00;;;;;;5025462;28;20209;-88
2023/03/27 09:13:00;;;;;;;4.00;2.20;;;7.10;47.50;;;;;;5023520;28;20261;-83
2023/03/27 09:15:31;;;;;;;3.70;2.27;;;7.20;46.10;;;;;;5025544;28;20201;-85
2023/03/27 09:18:13;;;;;;;8.50;3.77;;;7.20;46.80;;;;;;5036510;28;20211;-82
2023/03/27 09:20:44;;;;;;;4.07;2.07;;;7.10;47.40;;;;;;5026739;28;20293;-87
2023/03/27 09:23:27;;;;;;;3.17;2.00;;;7.00;47.60;;;;;;5026773;28;20170;-87
2023/03/27 09:26:13;;;;;;;4.63;2.00;;;7.10;49.00;;;;;;5025168;28;20209;-85
2023/03/27 09:28:50;;;;;;;3.37;2.03;;;7.10;46.80;;;;;;5027100;28;20587;-86
2023/03/27 09:31:30;;;;;;;3.20;2.30;;;7.50;46.80;;;;;;5008454;28;20204;-82
2023/03/27 09:34:00;;;;;;;4.03;2.00;;;7.90;45.90;;;;;;5026786;28;20154;-87
2023/03/27 09:36:25;;;;;;;5.37;2.37;;;8.30;44.70;;;;;;5024601;28;20234;-87
2023/03/27 09:38:57;;;;;;;3.80;2.23;;;8.50;42.60;;;;;;5027078;28;20261;-84
2023/03/27 09:41:22;;;;;;;5.07;2.27;;;8.80;42.90;;;;;;5006818;28;20194;-87
2023/03/27 09:44:10;;;;;;;3.00;2.00;;;9.00;42.30;;;;;;5004319;28;20189;-85
2023/03/27 09:46:42;;;;;;;3.23;2.30;;;9.20;40.30;;;;;;5005972;28;20224;-86
2023/03/27 09:49:15;;;;;;;5.50;2.50;;;9.10;42.30;;;;;;5019595;28;20199;-83
2023/03/27 09:51:47;;;;;;;2.90;1.90;;;8.90;40.80;;;;;;5005848;28;20198;-85
2023/03/27 09:54:16;;;;;;;2.90;2.17;;;9.10;37.00;;;;;;5006587;28;20213;-87
2023/03/27 09:56:50;;;;;;;4.53;2.07;;;8.70;39.00;;;;;;5006265;28;20190;-88
2023/03/27 09:59:32;;;;;;;3.43;2.13;;;8.50;39.70;;;;;;4988910;28;20158;-89
2023/03/27 10:02:08;;;;;;;4.23;1.90;;;8.70;39.30;;;;;;5007957;28;20174;-85
2023/03/27 10:04:35;;;;;;;4.83;2.20;;;9.10;38.80;;;;;;5024663;28;20259;-87
2023/03/27 10:07:09;;;;;;;2.73;2.00;;;9.50;37.90;;;;;;5025102;28;20188;-84
2023/03/27 10:09:39;;;;;;;5.93;2.40;;;9.80;37.20;;;;;;5026462;28;20706;-86
2023/03/27 10:12:16;;;;;;;4.27;2.37;;;9.70;38.70;;;;;;5033313;28;20203;-86
2023/03/27 10:14:50;;;;;;;4.03;2.13;;;9.70;38.50;;;;;;5031823;28;20208;-83
2023/03/27 10:17:29;;;;;;;4.53;2.20;;;10.10;38.10;;;;;;5045941;28;20195;-87
2023/03/27 10:20:04;;;;;;;3.47;2.10;;;10.20;36.90;;;;;;5046709;28;20184;-86
2023/03/27 10:22:35;;;;;;;4.13;2.40;;;10.10;36.80;;;;;;5046577;28;20625;-84
2023/03/27 10:25:03;;;;;;;4.83;2.37;;;9.60;39.10;;;;;;5046093;28;20196;-82
2023/03/27 10:27:34;;;;;;;4.03;2.03;;;9.40;40.90;;;;;;5046194;28;20177;-85
2023/03/27 10:30:00;;;;;;;4.93;2.07;;;9.20;39.90;;;;;;5045546;28;20227;-87
2023/03/27 10:32:44;;;;;;;4.27;2.20;;;8.60;40.90;;;;;;5043936;28;20696;-85
2023/03/27 10:35:30;;;;;;;4.60;1.97;;;8.60;43.40;;;;;;5025544;28;20228;-86
2023/03/27 10:37:56;;;;;;;3.73;1.70;;;9.10;38.50;;;;;;5045408;28;20153;-81
2023/03/27 10:40:29;;;;;;;2.83;2.13;;;9.60;37.60;;;;;;5045473;28;20173;-88
2023/03/27 10:43:01;;;;;;;2.47;1.90;;;9.80;37.30;;;;;;5046123;28;20256;-85
2023/03/27 10:45:27;;;;;;;4.47;2.37;;;10.10;39.10;;;;;;5046421;28;20254;-86
2023/03/27 10:47:58;;;;;;;1.87;1.67;;;10.40;35.60;;;;;;5047029;28;20195;-84
2023/03/27 10:50:30;;;;;;;2.83;1.97;;;10.50;34.90;;;;;;5046253;28;20185;-87
2023/03/27 10:53:13;;;;;;;2.83;2.03;;;10.60;33.90;;;;;;5028381;28;20216;-85
2023/03/27 10:55:53;;;;;;;3.67;2.37;;;10.50;34.70;;;;;;5030967;28;20216;-84
2023/03/27 10:58:54;;;;;;;4.00;1.90;;;11.00;34.90;;;;;;5049078;28;20207;-87
2023/03/27 11:01:38;;;;;;;3.03;1.93;;;11.20;33.20;;;;;;5050325;28;20196;-85
2023/03/27 11:04:20;;;;;;;2.97;1.80;;;11.30;33.60;;;;;;5050922;28;20208;-84
2023/03/27 11:06:49;;;;;;;3.27;2.00;;;10.90;33.80;;;;;;5050015;28;20205;-81
2023/03/27 11:09:19;;;;;;;8.33;3.23;;;10.40;35.40;;;;;;5041255;28;20204;-83
2023/03/27 11:11:51;;;;;;;7.00;2.17;;;10.40;35.00;;;;;;5050713;28;20214;-86
2023/03/27 11:14:23;;;;;;;3.20;2.07;;;10.70;37.30;;;;;;5049912;28;20272;-84
2023/03/27 11:16:57;;;;;;;3.23;2.30;;;10.70;37.20;;;;;;5049301;28;20180;-85
2023/03/27 11:19:31;;;;;;;2.40;1.80;;;10.70;36.30;;;;;;5050587;28;20241;-84
2023/03/27 11:22:04;;;;;;;3.17;1.80;;;10.60;35.40;;;;;;5048494;28;20200;-87
2023/03/27 11:24:49;;;;;;;4.77;2.10;;;10.30;37.30;;;;;;5047993;28;20179;-86
2023/03/27 11:27:38;;;;;;;3.40;2.10;;;10.10;39.70;;;;;;5049231;28;20709;-84
2023/03/27 11:30:17;;;;;;;3.73;3.40;;;10.00;40.10;;;;;;5046435;28;20165;-83
2023/03/27 11:33:06;;;;;;;4.13;2.40;;;9.70;42.80;;;;;;5020441;28;20200;-84
2023/03/27 11:35:50;;;;;;;14.00;12.67;;;9.30;43.30;;;;;;5026385;28;20198;-86
2023/03/27 11:38:24;;;;;;;6.70;5.03;;;9.20;45.80;;;;;;5026639;28;20166;-84
2023/03/27 11:40:50;;;;;;;5.63;4.00;;;9.50;45.30;;;;;;5032414;28;20177;-85
2023/03/27 11:43:18;;;;;;;3.70;2.10;;;10.20;44.70;;;;;;5032746;28;20223;-86
2023/03/27 11:45:51;;;;;;;2.40;1.80;;;11.00;40.10;;;;;;5045904;28;20401;-85
2023/03/27 11:48:43;;;;;;;2.20;1.93;;;11.90;38.40;;;;;;5033627;28;20190;-86
2023/03/27 11:51:16;;;;;;;6.17;2.27;;;12.80;34.60;;;;;;5027870;28;20231;-84
2023/03/27 11:53:50;;;;;;;3.70;2.10;;;12.80;34.20;;;;;;5008472;28;20186;-84
2023/03/27 11:56:16;;;;;;;2.50;1.90;;;12.60;34.30;;;;;;5017266;28;20200;-86
2023/03/27 11:58:52;;;;;;;5.30;3.30;;;12.40;35.00;;;;;;5047516;28;20560;-85
2023/03/27 12:01:33;;;;;;;2.57;1.77;;;12.20;34.90;;;;;;5049077;28;20168;-81
2023/03/27 12:04:49;;;;;;;3.00;2.27;;;11.90;36.10;;;;;;5024680;28;20219;-84
2023/03/27 12:07:36;;;;;;;3.93;2.10;;;12.30;35.70;;;;;;4996056;28;20293;-84
2023/03/27 12:10:25;;;;;;;3.33;2.23;;;11.30;36.50;;;;;;5019835;28;20227;-85
2023/03/27 12:13:19;;;;;;;2.80;2.27;;;11.20;36.50;;;;;;5034593;28;20201;-85
2023/03/27 12:16:26;;;;;;;4.27;2.00;;;11.10;39.30;;;;;;5032056;28;20251;-84
2023/03/27 12:19:13;;;;;;;2.60;1.70;;;10.00;42.20;;;;;;4998360;28;20224;-85
2023/03/27 12:21:52;;;;;;;5.93;2.10;;;9.50;46.70;;;;;;5049061;28;20235;-85
2023/03/27 12:24:31;;;;;;;4.30;2.30;;;9.30;45.30;;;;;;5040154;28;20167;-88
2023/03/27 12:27:13;;;;;;;2.73;1.90;;;9.00;48.50;;;;;;5009934;28;20181;-86
2023/03/27 12:30:12;;;;;;;4.47;2.37;;;8.60;49.50;;;;;;5028696;28;20275;-86
2023/03/27 12:32:58;;;;;;;5.23;1.87;;;8.50;49.80;;;;;;5028061;28;20237;-86
2023/03/27 12:35:27;;;;;;;3.33;2.03;;;8.50;48.80;;;;;;5028345;28;20252;-87
2023/03/27 12:38:09;;;;;;;2.67;2.00;;;8.50;49.80;;;;;;5029560;28;20223;-85
2023/03/27 12:40:47;;;;;;;5.13;2.20;;;8.50;52.90;;;;;;5028954;28;20200;-84
2023/03/27 12:43:18;;;;;;;5.57;2.03;;;8.30;61.40;;;;;;5009474;28;20219;-85
2023/03/27 12:46:10;;;;;;;3.60;2.30;;;7.60;68.70;;;;;;5010219;28;20249;-85
2023/03/27 12:49:04;;;;;;;2.77;2.20;;;7.40;69.60;;;;;;5014078;28;20186;-86
2023/03/27 12:51:52;;;;;;;4.40;2.30;;;7.20;69.50;;;;;;5031355;28;20259;-84
2023/03/27 12:54:28;;;;;;;4.30;2.03;;;7.70;73.70;;;;;;5038990;28;20181;-87
2023/03/27 12:57:04;;;;;;;2.73;2.37;;;7.50;78.50;;;;;;5025508;28;20300;-85
2023/03/27 12:59:37;;;;;;;3.23;2.03;;;7.40;77.50;;;;;;5027328;28;20245;-83
2023/03/27 13:02:03;;;;;;;4.30;2.20;;;7.20;72.40;;;;;;5030260;28;20216;-86
2023/03/27 13:04:58;;;;;;;5.13;3.47;;;6.90;68.20;;;;;;5047015;28;20181;-82
2023/03/27 13:07:44;;;;;;;6.33;2.40;;;7.10;71.20;;;;;;5012526;28;20189;-86
2023/03/27 13:10:19;;;;;;;2.80;2.30;;;7.60;77.60;;;;;;5046119;28;20173;-84
2023/03/27 13:13:09;;;;;;;5.63;3.63;;;7.70;80.30;;;;;;5026641;28;20189;-80
2023/03/27 13:15:40;;;;;;;4.50;2.40;;;7.80;72.00;;;;;;5025940;28;20282;-86
2023/03/27 13:18:28;;;;;;;4.87;2.57;;;7.90;75.10;;;;;;5027274;28;20174;-80
2023/03/27 13:21:02;;;;;;;4.10;2.40;;;7.60;74.40;;;;;;5019458;28;20250;-85